createdAt,value
2019-05-12T00:00:48.401Z,0.00
2019-05-12T00:01:48.120Z,0.00
2019-05-12T00:02:48.438Z,0.00
2019-05-12T00:03:48.514Z,0.00
2019-05-12T00:04:48.696Z,0.00
2019-05-12T00:05:48.321Z,0.00
2019-05-12T00:06:47.871Z,0.00
2019-05-12T00:07:48.793Z,0.00
2019-05-12T00:08:48.734Z,0.00
2019-05-12T00:09:47.955Z,0.00
2019-05-12T00:10:47.838Z,0.00
2019-05-12T00:11:48.459Z,0.00
2019-05-12T00:12:48.197Z,0.00
2019-05-12T00:13:47.802Z,0.00
2019-05-12T00:14:48.504Z,0.00
2019-05-12T00:15:47.654Z,0.00
2019-05-12T00:16:48.952Z,0.00
2019-05-12T00:17:48.102Z,0.00
2019-05-12T00:18:48.332Z,0.00
2019-05-12T00:19:47.946Z,0.00
2019-05-12T00:20:47.657Z,0.00
2019-05-12T00:21:48.269Z,0.00
2019-05-12T00:22:48.153Z,0.00
2019-05-12T00:23:47.663Z,0.00
2019-05-12T00:24:47.874Z,0.00
2019-05-12T00:25:47.996Z,0.00
2019-05-12T00:26:47.768Z,0.00
2019-05-12T00:27:48.678Z,0.00
2019-05-12T00:28:48.238Z,0.00
2019-05-12T00:29:48.585Z,0.00
2019-05-12T00:30:48.593Z,0.00
2019-05-12T00:31:47.784Z,0.00
2019-05-12T00:32:47.845Z,0.00
2019-05-12T00:33:48.058Z,0.00
2019-05-12T00:34:48.030Z,0.00
2019-05-12T00:35:48.283Z,0.00
2019-05-12T00:36:48.394Z,0.00
2019-05-12T00:37:48.568Z,0.00
2019-05-12T00:38:48.433Z,0.00
2019-05-12T00:39:47.833Z,0.00
2019-05-12T00:40:47.922Z,0.00
2019-05-12T00:41:48.209Z,0.00
2019-05-12T00:42:48.430Z,0.00
2019-05-12T00:43:48.285Z,0.00
2019-05-12T00:44:47.891Z,0.00
2019-05-12T00:45:48.162Z,0.00
2019-05-12T00:46:48.571Z,0.00
2019-05-12T00:47:48.098Z,0.00
2019-05-12T00:48:48.222Z,0.00
2019-05-12T00:49:48.013Z,0.00
2019-05-12T00:50:48.156Z,0.00
2019-05-12T00:51:48.374Z,0.00
2019-05-12T00:52:46.126Z,0.00
2019-05-12T00:53:47.889Z,0.00
2019-05-12T00:54:48.262Z,0.00
2019-05-12T00:55:47.657Z,0.00
2019-05-12T00:56:47.992Z,0.00
2019-05-12T00:57:48.014Z,0.00
2019-05-12T00:58:46.035Z,0.00
2019-05-12T00:59:47.791Z,0.00
2019-05-12T01:00:48.140Z,0.00
2019-05-12T01:01:48.064Z,0.00
2019-05-12T01:02:48.511Z,0.00
2019-05-12T01:03:48.054Z,0.00
2019-05-12T01:04:45.949Z,0.00
2019-05-12T01:05:45.972Z,0.00
2019-05-12T01:06:45.931Z,0.00
2019-05-12T01:07:48.210Z,0.00
2019-05-12T01:08:48.379Z,0.00
2019-05-12T01:09:45.955Z,0.00
2019-05-12T01:10:47.840Z,0.00
2019-05-12T01:11:48.005Z,0.00
2019-05-12T01:12:45.867Z,0.00
2019-05-12T01:13:45.852Z,0.00
2019-05-12T01:14:47.821Z,0.00
2019-05-12T01:15:48.028Z,0.00
2019-05-12T01:16:45.819Z,0.00
2019-05-12T01:17:47.787Z,0.00
2019-05-12T01:18:47.991Z,0.00
2019-05-12T01:19:48.468Z,0.00
2019-05-12T01:20:47.952Z,0.00
2019-05-12T01:21:47.989Z,0.00
2019-05-12T01:22:45.751Z,0.00
2019-05-12T01:23:56.350Z,0.00
2019-05-12T01:24:48.312Z,0.00
2019-05-12T01:25:47.815Z,0.00
2019-05-12T01:26:47.624Z,0.00
2019-05-12T01:27:48.241Z,0.00
2019-05-12T01:28:45.680Z,0.00
2019-05-12T01:29:47.912Z,0.00
2019-05-12T01:30:47.798Z,0.00
2019-05-12T01:31:45.652Z,0.00
2019-05-12T01:32:45.661Z,0.00
2019-05-12T01:33:45.633Z,0.00
2019-05-12T01:34:45.619Z,0.00
2019-05-12T01:35:45.643Z,0.00
2019-05-12T01:36:45.595Z,0.00
2019-05-12T01:37:45.577Z,0.00
2019-05-12T01:38:48.145Z,0.00
2019-05-12T01:39:45.558Z,0.00
2019-05-12T01:40:47.507Z,0.00
2019-05-12T01:41:48.014Z,0.00
2019-05-12T01:42:45.526Z,0.00
2019-05-12T01:43:45.517Z,0.00
2019-05-12T01:44:48.060Z,0.00
2019-05-12T01:45:45.501Z,0.00
2019-05-12T01:46:45.542Z,0.00
2019-05-12T01:47:45.495Z,0.00
2019-05-12T01:48:45.466Z,0.00
2019-05-12T01:49:45.459Z,0.00
2019-05-12T01:50:47.451Z,0.00
2019-05-12T01:51:47.547Z,0.00
2019-05-12T01:52:47.698Z,0.00
2019-05-12T01:53:45.399Z,0.00
2019-05-12T01:54:45.412Z,0.00
2019-05-12T01:55:45.389Z,0.00
2019-05-12T01:56:45.374Z,0.00
2019-05-12T01:57:45.361Z,0.00
2019-05-12T01:58:45.361Z,0.00
2019-05-12T01:59:45.337Z,0.00
2019-05-12T02:00:45.324Z,0.00
2019-05-12T02:01:45.310Z,0.00
2019-05-12T02:02:45.340Z,0.00
2019-05-12T02:03:45.292Z,0.00
2019-05-12T02:04:45.328Z,0.00
2019-05-12T02:05:45.272Z,0.00
2019-05-12T02:06:45.255Z,0.00
2019-05-12T02:07:47.775Z,0.00
2019-05-12T02:08:47.604Z,0.00
2019-05-12T02:09:45.225Z,0.00
2019-05-12T02:10:45.210Z,0.00
2019-05-12T02:11:45.207Z,0.00
2019-05-12T02:12:45.199Z,0.00
2019-05-12T02:13:45.177Z,0.00
2019-05-12T02:14:45.192Z,0.00
2019-05-12T02:15:45.157Z,0.00
2019-05-12T02:16:45.149Z,0.00
2019-05-12T02:17:45.151Z,0.00
2019-05-12T02:18:45.135Z,0.00
2019-05-12T02:19:45.116Z,0.00
2019-05-12T02:20:45.105Z,0.00
2019-05-12T02:21:45.094Z,0.00
2019-05-12T02:22:45.102Z,0.00
2019-05-12T02:23:45.075Z,0.00
2019-05-12T02:24:45.071Z,0.00
2019-05-12T02:25:45.053Z,0.00
2019-05-12T02:26:45.040Z,0.00
2019-05-12T02:27:45.030Z,0.00
2019-05-12T02:28:45.015Z,0.00
2019-05-12T02:29:45.016Z,0.00
2019-05-12T02:30:45.001Z,0.00
2019-05-12T02:31:44.989Z,0.00
2019-05-12T02:32:52.423Z,0.00
2019-05-12T02:33:45.955Z,0.00
2019-05-12T02:34:45.761Z,0.00
2019-05-12T02:35:44.945Z,0.00
2019-05-12T02:36:45.133Z,0.00
2019-05-12T02:37:45.343Z,0.00
2019-05-12T02:38:45.461Z,0.00
2019-05-12T02:39:45.063Z,0.00
2019-05-12T02:40:45.028Z,0.00
2019-05-12T02:41:45.184Z,0.00
2019-05-12T02:42:46.271Z,0.00
2019-05-12T02:43:45.777Z,4.00
2019-05-12T02:44:44.847Z,4.00
2019-05-12T02:45:44.852Z,4.00
2019-05-12T02:46:44.957Z,0.00
2019-05-12T02:47:45.882Z,4.00
2019-05-12T02:48:45.106Z,4.00
2019-05-12T02:49:44.992Z,4.00
2019-05-12T02:50:45.284Z,4.00
2019-05-12T02:51:45.657Z,4.00
2019-05-12T02:52:44.754Z,8.00
2019-05-12T02:53:47.070Z,8.00
2019-05-12T02:54:54.466Z,12.00
2019-05-12T02:55:45.756Z,12.00
2019-05-12T02:56:45.008Z,12.00
2019-05-12T02:57:45.325Z,12.00
2019-05-12T02:58:45.370Z,16.00
2019-05-12T02:59:44.928Z,16.00
2019-05-12T03:00:45.580Z,20.00
2019-05-12T03:01:45.299Z,24.00
2019-05-12T03:02:44.658Z,28.00
2019-05-12T03:03:44.632Z,28.00
2019-05-12T03:04:44.620Z,36.00
2019-05-12T03:05:44.619Z,44.00
2019-05-12T03:06:44.806Z,44.00
2019-05-12T03:07:44.910Z,52.00
2019-05-12T03:08:44.981Z,64.00
2019-05-12T03:09:44.830Z,68.00
2019-05-12T03:10:44.946Z,76.00
2019-05-12T03:11:44.790Z,84.00
2019-05-12T03:12:45.120Z,92.00
2019-05-12T03:13:44.963Z,100.00
2019-05-12T03:14:44.887Z,108.00
2019-05-12T03:15:44.747Z,116.00
2019-05-12T03:16:45.356Z,128.00
2019-05-12T03:17:44.528Z,140.00
2019-05-12T03:18:45.115Z,152.00
2019-05-12T03:19:44.936Z,164.00
2019-05-12T03:20:45.485Z,176.00
2019-05-12T03:21:44.457Z,188.00
2019-05-12T03:22:44.978Z,204.00
2019-05-12T03:23:44.955Z,220.00
2019-05-12T03:24:44.966Z,232.00
2019-05-12T03:25:45.578Z,248.00
2019-05-12T03:26:45.086Z,264.00
2019-05-12T03:27:44.641Z,280.00
2019-05-12T03:28:44.793Z,296.00
2019-05-12T03:29:44.971Z,312.00
2019-05-12T03:30:48.534Z,332.00
2019-05-12T03:31:48.702Z,348.00
2019-05-12T03:32:47.375Z,368.00
2019-05-12T03:33:52.230Z,388.00
2019-05-12T03:34:47.335Z,408.00
2019-05-12T03:35:52.251Z,432.00
2019-05-12T03:36:50.629Z,452.00
2019-05-12T03:37:45.457Z,480.00
2019-05-12T03:38:44.972Z,508.00
2019-05-12T03:39:44.832Z,532.00
2019-05-12T03:40:44.981Z,564.00
2019-05-12T03:41:44.663Z,592.00
2019-05-12T03:42:44.606Z,624.00
2019-05-12T03:43:45.003Z,656.00
2019-05-12T03:44:44.622Z,692.00
2019-05-12T03:45:45.349Z,724.00
2019-05-12T03:46:45.619Z,756.00
2019-05-12T03:47:45.457Z,788.00
2019-05-12T03:48:45.425Z,828.00
2019-05-12T03:49:45.435Z,864.00
2019-05-12T03:50:46.075Z,904.00
2019-05-12T03:51:45.662Z,948.00
2019-05-12T03:52:44.970Z,992.00
2019-05-12T03:53:45.511Z,1044.00
2019-05-12T03:54:45.202Z,1092.00
2019-05-12T03:55:46.955Z,1144.00
2019-05-12T03:56:45.083Z,1200.00
2019-05-12T03:57:45.097Z,1264.00
2019-05-12T03:58:45.236Z,1336.00
2019-05-12T03:59:44.970Z,1412.00
2019-05-12T04:00:44.753Z,1496.00
2019-05-12T04:01:45.031Z,1584.00
2019-05-12T04:02:45.359Z,1676.00
2019-05-12T04:03:45.126Z,1776.00
2019-05-12T04:04:45.345Z,1868.00
2019-05-12T04:05:45.200Z,1964.00
2019-05-12T04:06:45.248Z,2064.00
2019-05-12T04:07:44.998Z,2168.00
2019-05-12T04:08:45.554Z,2260.00
2019-05-12T04:09:45.147Z,2360.00
2019-05-12T04:10:45.368Z,2464.00
2019-05-12T04:11:44.509Z,2572.00
2019-05-12T04:12:44.820Z,2676.00
2019-05-12T04:13:45.241Z,2784.00
2019-05-12T04:14:44.895Z,2904.00
2019-05-12T04:15:45.401Z,3032.00
2019-05-12T04:16:45.160Z,3144.00
2019-05-12T04:17:45.288Z,3256.00
2019-05-12T04:18:45.027Z,3352.00
2019-05-12T04:19:44.702Z,3452.00
2019-05-12T04:20:45.190Z,3536.00
2019-05-12T04:21:44.776Z,3608.00
2019-05-12T04:22:44.618Z,3676.00
2019-05-12T04:23:44.453Z,3760.00
2019-05-12T04:24:44.550Z,3852.00
2019-05-12T04:25:52.362Z,3928.00
2019-05-12T04:26:45.140Z,4004.00
2019-05-12T04:27:45.119Z,4056.00
2019-05-12T04:28:45.567Z,4080.00
2019-05-12T04:29:44.233Z,4092.00
2019-05-12T04:30:44.533Z,4104.00
2019-05-12T04:31:44.364Z,4100.00
2019-05-12T04:32:45.165Z,4108.00
2019-05-12T04:33:45.236Z,4096.00
2019-05-12T04:34:44.667Z,4116.00
2019-05-12T04:35:45.152Z,4124.00
2019-05-12T04:36:44.885Z,4124.00
2019-05-12T04:37:44.990Z,4140.00
2019-05-12T04:38:45.014Z,4140.00
2019-05-12T04:39:44.716Z,4136.00
2019-05-12T04:40:44.956Z,4168.00
2019-05-12T04:41:44.731Z,4204.00
2019-05-12T04:42:45.212Z,4252.00
2019-05-12T04:43:44.732Z,4308.00
2019-05-12T04:44:44.854Z,4380.00
2019-05-12T04:45:45.147Z,4456.00
2019-05-12T04:46:44.997Z,4528.00
2019-05-12T04:47:44.971Z,4604.00
2019-05-12T04:48:45.307Z,4680.00
2019-05-12T04:49:45.164Z,4764.00
2019-05-12T04:50:45.203Z,4856.00
2019-05-12T04:51:45.236Z,4948.00
2019-05-12T04:52:44.527Z,5076.00
2019-05-12T04:53:44.924Z,5192.00
2019-05-12T04:54:44.512Z,5276.00
2019-05-12T04:55:44.601Z,5388.00
2019-05-12T04:56:44.595Z,5488.00
2019-05-12T04:57:45.134Z,5608.00
2019-05-12T04:58:45.066Z,5696.00
2019-05-12T04:59:45.070Z,5736.00
2019-05-12T05:00:44.840Z,5772.00
2019-05-12T05:01:45.300Z,5812.00
2019-05-12T05:02:45.495Z,5868.00
2019-05-12T05:03:44.269Z,5884.00
2019-05-12T05:04:44.134Z,5952.00
2019-05-12T05:05:44.419Z,6052.00
2019-05-12T05:06:44.867Z,6144.00
2019-05-12T05:07:44.801Z,6208.00
2019-05-12T05:08:44.308Z,6304.00
2019-05-12T05:09:44.254Z,6384.00
2019-05-12T05:10:44.364Z,6512.00
2019-05-12T05:11:45.087Z,6740.00
2019-05-12T05:12:44.912Z,6980.00
2019-05-12T05:13:44.382Z,7240.00
2019-05-12T05:14:44.577Z,7424.00
2019-05-12T05:15:44.586Z,7580.00
2019-05-12T05:16:45.130Z,7664.00
2019-05-12T05:17:44.127Z,7860.00
2019-05-12T05:18:43.937Z,8180.00
2019-05-12T05:19:44.122Z,8444.00
2019-05-12T05:20:43.832Z,8552.00
2019-05-12T05:21:43.742Z,8572.00
2019-05-12T05:22:44.008Z,8536.00
2019-05-12T05:23:44.321Z,8544.00
2019-05-12T05:24:44.393Z,8692.00
2019-05-12T05:25:43.534Z,8868.00
2019-05-12T05:26:43.577Z,9012.00
2019-05-12T05:27:44.342Z,9184.00
2019-05-12T05:28:43.634Z,9384.00
2019-05-12T05:29:43.769Z,9552.00
2019-05-12T05:30:44.091Z,9660.00
2019-05-12T05:31:44.181Z,9720.00
2019-05-12T05:32:44.436Z,9800.00
2019-05-12T05:33:43.561Z,9860.00
2019-05-12T05:34:46.013Z,10068.00
2019-05-12T05:35:43.963Z,10200.00
2019-05-12T05:36:43.442Z,10212.00
2019-05-12T05:37:44.171Z,10192.00
2019-05-12T05:38:43.673Z,10148.00
2019-05-12T05:39:49.257Z,10220.00
2019-05-12T05:40:43.892Z,10244.00
2019-05-12T05:41:46.475Z,10088.00
2019-05-12T05:42:44.166Z,10052.00
2019-05-12T05:43:43.759Z,10156.00
2019-05-12T05:44:43.468Z,10164.00
2019-05-12T05:45:43.860Z,10088.00
2019-05-12T05:46:47.713Z,9984.00
2019-05-12T05:47:44.438Z,9948.00
2019-05-12T05:48:43.976Z,10000.00
2019-05-12T05:49:43.448Z,9988.00
2019-05-12T05:50:43.878Z,9624.00
2019-05-12T05:51:46.661Z,9260.00
2019-05-12T05:52:43.950Z,9012.00
2019-05-12T05:53:44.211Z,8972.00
2019-05-12T05:54:44.006Z,8944.00
2019-05-12T05:55:44.227Z,8932.00
2019-05-12T05:56:56.955Z,8896.00
2019-05-12T05:57:44.357Z,8872.00
2019-05-12T05:58:47.114Z,8980.00
2019-05-12T05:59:44.695Z,9160.00
2019-05-12T06:00:43.455Z,9448.00
2019-05-12T06:01:46.894Z,9700.00
2019-05-12T06:02:44.279Z,9824.00
2019-05-12T06:03:44.151Z,9940.00
2019-05-12T06:04:45.415Z,10180.00
2019-05-12T06:05:43.612Z,10412.00
2019-05-12T06:06:50.775Z,10716.00
2019-05-12T06:07:44.341Z,11128.00
2019-05-12T06:08:44.267Z,11504.00
2019-05-12T06:09:43.291Z,11896.00
2019-05-12T06:10:43.507Z,12264.00
2019-05-12T06:11:43.763Z,12480.00
2019-05-12T06:12:48.737Z,12620.00
2019-05-12T06:13:44.307Z,12756.00
2019-05-12T06:14:48.777Z,12928.00
2019-05-12T06:15:43.527Z,12996.00
2019-05-12T06:16:43.359Z,13076.00
2019-05-12T06:17:43.864Z,12852.00
2019-05-12T06:18:43.991Z,12668.00
2019-05-12T06:19:43.763Z,12532.00
2019-05-12T06:20:43.663Z,12516.00
2019-05-12T06:21:44.009Z,12712.00
2019-05-12T06:22:43.769Z,12816.00
2019-05-12T06:23:43.427Z,12984.00
2019-05-12T06:24:44.161Z,13356.00
2019-05-12T06:25:49.380Z,13176.00
2019-05-12T06:26:56.804Z,13140.00
2019-05-12T06:27:44.343Z,12976.00
2019-05-12T06:28:43.972Z,12544.00
2019-05-12T06:29:43.756Z,12368.00
2019-05-12T06:30:45.036Z,12192.00
2019-05-12T06:31:44.131Z,11944.00
2019-05-12T06:32:50.189Z,11800.00
2019-05-12T06:33:44.664Z,11796.00
2019-05-12T06:34:43.561Z,11604.00
2019-05-12T06:35:45.133Z,11392.00
2019-05-12T06:36:44.075Z,10924.00
2019-05-12T06:37:44.324Z,10372.00
2019-05-12T06:38:43.474Z,9868.00
2019-05-12T06:39:43.570Z,9520.00
2019-05-12T06:40:44.700Z,9188.00
2019-05-12T06:41:44.351Z,9016.00
2019-05-12T06:42:43.607Z,9236.00
2019-05-12T06:43:45.177Z,9420.00
2019-05-12T06:44:43.801Z,9788.00
2019-05-12T06:45:45.334Z,9720.00
2019-05-12T06:46:44.113Z,9736.00
2019-05-12T06:47:45.275Z,9572.00
2019-05-12T06:48:45.374Z,9332.00
2019-05-12T06:49:43.955Z,8984.00
2019-05-12T06:50:44.143Z,8488.00
2019-05-12T06:51:44.330Z,8108.00
2019-05-12T06:52:46.802Z,7732.00
2019-05-12T06:53:44.348Z,7656.00
2019-05-12T06:54:51.040Z,7656.00
2019-05-12T06:55:43.384Z,7584.00
2019-05-12T06:56:43.537Z,7484.00
2019-05-12T06:57:45.929Z,7440.00
2019-05-12T06:58:44.258Z,7740.00
2019-05-12T06:59:50.543Z,7756.00
2019-05-12T07:00:43.777Z,8076.00
2019-05-12T07:01:41.982Z,8584.00
2019-05-12T07:02:50.091Z,8716.00
2019-05-12T07:03:44.066Z,9140.00
2019-05-12T07:04:49.792Z,9612.00
2019-05-12T07:05:45.174Z,10116.00
2019-05-12T07:06:44.097Z,10112.00
2019-05-12T07:07:45.745Z,9920.00
2019-05-12T07:08:43.848Z,9560.00
2019-05-12T07:09:53.637Z,9348.00
2019-05-12T07:10:46.031Z,9432.00
2019-05-12T07:11:52.844Z,9840.00
2019-05-12T07:12:58.259Z,10204.00
2019-05-12T07:13:43.637Z,10544.00
2019-05-12T07:14:43.820Z,10744.00
2019-05-12T07:15:43.766Z,10788.00
2019-05-12T07:16:43.755Z,10684.00
2019-05-12T07:17:44.324Z,10612.00
2019-05-12T07:18:43.702Z,10608.00
2019-05-12T07:19:43.599Z,10476.00
2019-05-12T07:20:43.511Z,10368.00
2019-05-12T07:21:43.882Z,10276.00
2019-05-12T07:22:45.816Z,10092.00
2019-05-12T07:23:44.442Z,9820.00
2019-05-12T07:24:50.188Z,9760.00
2019-05-12T07:25:44.442Z,9760.00
2019-05-12T07:26:41.705Z,9680.00
2019-05-12T07:27:47.331Z,9548.00
2019-05-12T07:28:43.376Z,9340.00
2019-05-12T07:29:43.606Z,9232.00
2019-05-12T07:30:43.898Z,9236.00
2019-05-12T07:31:41.649Z,9308.00
2019-05-12T07:32:43.356Z,9700.00
2019-05-12T07:33:45.049Z,9780.00
2019-05-12T07:34:43.634Z,9788.00
2019-05-12T07:35:44.154Z,9660.00
2019-05-12T07:36:41.593Z,9860.00
2019-05-12T07:37:43.626Z,9568.00
2019-05-12T07:38:43.416Z,9404.00
2019-05-12T07:39:47.269Z,9400.00
2019-05-12T07:40:44.387Z,9032.00
2019-05-12T07:41:50.407Z,8772.00
2019-05-12T07:42:43.878Z,8656.00
2019-05-12T07:43:44.162Z,8656.00
2019-05-12T07:44:43.983Z,8308.00
2019-05-12T07:45:41.492Z,7788.00
2019-05-12T07:46:45.649Z,7560.00
2019-05-12T07:47:44.802Z,7520.00
2019-05-12T07:48:46.555Z,7528.00
2019-05-12T07:49:44.104Z,7412.00
2019-05-12T07:50:43.353Z,7296.00
2019-05-12T07:51:41.437Z,7228.00
2019-05-12T07:52:43.985Z,7260.00
2019-05-12T07:53:46.802Z,7160.00
2019-05-12T07:54:44.379Z,6680.00
2019-05-12T07:55:47.446Z,6528.00
2019-05-12T07:56:44.250Z,6448.00
2019-05-12T07:57:52.882Z,6272.00
2019-05-12T07:58:47.489Z,6180.00
2019-05-12T07:59:43.786Z,6128.00
2019-05-12T08:00:41.333Z,6108.00
2019-05-12T08:01:48.644Z,6164.00
2019-05-12T08:02:44.418Z,6248.00
2019-05-12T08:03:43.532Z,6324.00
2019-05-12T08:04:43.892Z,6408.00
2019-05-12T08:05:43.758Z,6488.00
2019-05-12T08:06:42.449Z,6752.00
2019-05-12T08:07:44.502Z,7104.00
2019-05-12T08:08:50.196Z,7528.00
2019-05-12T08:09:43.240Z,8000.00
2019-05-12T08:10:41.218Z,8228.00
2019-05-12T08:11:43.247Z,8228.00
2019-05-12T08:12:41.190Z,8228.00
2019-05-12T08:13:43.662Z,8124.00
2019-05-12T08:14:43.833Z,8244.00
2019-05-12T08:15:45.670Z,8552.00
2019-05-12T08:16:43.748Z,10544.00
2019-05-12T08:17:41.142Z,36096.00
2019-05-12T08:18:41.241Z,65280.00
2019-05-12T08:19:41.193Z,66688.00
2019-05-12T08:20:43.378Z,70176.00
2019-05-12T08:21:42.598Z,72576.00
2019-05-12T08:22:43.839Z,75136.00
2019-05-12T08:23:41.068Z,76128.00
2019-05-12T08:24:43.639Z,77664.00
2019-05-12T08:25:43.769Z,45920.00
2019-05-12T08:26:43.425Z,64256.00
2019-05-12T08:27:45.254Z,61952.00
2019-05-12T08:28:44.140Z,39520.00
2019-05-12T08:29:42.843Z,53376.00
2019-05-12T08:30:49.724Z,49152.00
2019-05-12T08:31:44.044Z,54432.00
2019-05-12T08:32:40.983Z,54048.00
2019-05-12T08:33:43.479Z,50752.00
2019-05-12T08:34:43.582Z,41824.00
2019-05-12T08:35:40.935Z,38400.00
2019-05-12T08:36:45.065Z,30016.00
2019-05-12T08:37:44.177Z,25184.00
2019-05-12T08:38:40.901Z,20544.00
2019-05-12T08:39:40.893Z,17248.00
2019-05-12T08:40:48.754Z,16492.00
2019-05-12T08:41:44.269Z,17248.00
2019-05-12T08:42:43.410Z,18400.00
2019-05-12T08:43:46.901Z,19808.00
2019-05-12T08:44:43.981Z,27296.00
2019-05-12T08:45:40.831Z,48512.00
2019-05-12T08:46:43.241Z,56896.00
2019-05-12T08:47:43.890Z,56352.00
2019-05-12T08:48:40.796Z,54464.00
2019-05-12T08:49:50.097Z,55680.00
2019-05-12T08:50:45.362Z,60128.00
2019-05-12T08:51:40.759Z,61504.00
2019-05-12T08:52:41.973Z,59328.00
2019-05-12T08:53:40.764Z,63520.00
2019-05-12T08:54:45.421Z,62112.00
2019-05-12T08:55:43.591Z,60544.00
2019-05-12T08:56:40.701Z,47936.00
2019-05-12T08:57:46.412Z,60512.00
2019-05-12T08:58:48.198Z,61632.00
2019-05-12T08:59:43.996Z,60768.00
2019-05-12T09:00:46.510Z,61888.00
2019-05-12T09:01:43.721Z,62112.00
2019-05-12T09:02:46.118Z,64832.00
2019-05-12T09:03:44.090Z,63296.00
2019-05-12T09:04:43.125Z,60736.00
2019-05-12T09:05:41.609Z,59552.00
2019-05-12T09:06:40.599Z,60736.00
2019-05-12T09:07:40.585Z,71904.00
2019-05-12T09:08:45.191Z,67520.00
2019-05-12T09:09:43.807Z,69440.00
2019-05-12T09:10:40.594Z,68704.00
2019-05-12T09:11:40.539Z,72704.00
2019-05-12T09:12:40.539Z,70208.00
2019-05-12T09:13:40.519Z,70112.00
2019-05-12T09:14:41.427Z,65376.00
2019-05-12T09:15:43.567Z,67136.00
2019-05-12T09:16:40.496Z,81344.00
2019-05-12T09:17:49.058Z,81792.00
2019-05-12T09:18:43.538Z,77024.00
2019-05-12T09:19:40.454Z,77440.00
2019-05-12T09:20:48.896Z,80320.00
2019-05-12T09:21:44.046Z,81504.00
2019-05-12T09:22:40.429Z,82400.00
2019-05-12T09:23:41.453Z,83712.00
2019-05-12T09:24:40.407Z,82496.00
2019-05-12T09:25:45.310Z,80992.00
2019-05-12T09:26:43.325Z,81312.00
2019-05-12T09:27:45.650Z,85888.00
2019-05-12T09:28:47.487Z,87744.00
2019-05-12T09:29:43.433Z,92960.00
2019-05-12T09:30:47.515Z,94464.00
2019-05-12T09:31:41.319Z,95200.00
2019-05-12T09:32:45.368Z,93024.00
2019-05-12T09:33:41.303Z,93504.00
2019-05-12T09:34:46.946Z,93216.00
2019-05-12T09:35:43.572Z,92704.00
2019-05-12T09:36:40.274Z,89280.00
2019-05-12T09:37:40.664Z,87968.00
2019-05-12T09:38:41.088Z,88384.00
2019-05-12T09:39:43.591Z,86496.00
2019-05-12T09:40:43.532Z,92192.00
2019-05-12T09:41:43.966Z,95296.00
2019-05-12T09:42:41.217Z,93664.00
2019-05-12T09:43:45.203Z,96256.00
2019-05-12T09:44:42.007Z,100544.00
2019-05-12T09:45:49.773Z,100416.00
2019-05-12T09:46:41.167Z,101856.00
2019-05-12T09:47:40.149Z,102400.00
2019-05-12T09:48:46.951Z,101184.00
2019-05-12T09:49:41.117Z,103104.00
2019-05-12T09:50:40.113Z,99904.00
2019-05-12T09:51:42.915Z,100800.00
2019-05-12T09:52:41.103Z,103648.00
2019-05-12T09:53:42.838Z,101408.00
2019-05-12T09:54:41.177Z,104160.00
2019-05-12T09:55:40.062Z,101344.00
2019-05-12T09:56:41.306Z,96992.00
2019-05-12T09:57:41.162Z,96640.00
2019-05-12T09:58:40.029Z,100128.00
2019-05-12T09:59:40.038Z,103584.00
2019-05-12T10:00:40.000Z,103680.00
2019-05-12T10:01:42.942Z,105120.00
2019-05-12T10:02:43.135Z,106624.00
2019-05-12T10:03:40.210Z,105024.00
2019-05-12T10:04:39.973Z,107232.00
2019-05-12T10:05:41.381Z,103264.00
2019-05-12T10:06:39.937Z,100800.00
2019-05-12T10:07:39.926Z,100576.00
2019-05-12T10:08:39.917Z,99424.00
2019-05-12T10:09:39.905Z,97952.00
2019-05-12T10:10:40.807Z,99552.00
2019-05-12T10:11:39.906Z,89248.00
2019-05-12T10:12:46.264Z,102528.00
2019-05-12T10:13:40.880Z,101600.00
2019-05-12T10:14:40.711Z,103936.00
2019-05-12T10:15:40.871Z,101536.00
2019-05-12T10:16:45.708Z,94784.00
2019-05-12T10:17:43.261Z,103616.00
2019-05-12T10:18:45.436Z,105344.00
2019-05-12T10:19:40.804Z,107232.00
2019-05-12T10:20:40.036Z,105248.00
2019-05-12T10:21:39.780Z,104928.00
2019-05-12T10:22:40.446Z,102976.00
2019-05-12T10:23:39.790Z,107168.00
2019-05-12T10:24:42.326Z,105504.00
2019-05-12T10:25:39.738Z,103776.00
2019-05-12T10:26:41.127Z,103200.00
2019-05-12T10:27:40.736Z,100672.00
2019-05-12T10:28:45.348Z,102464.00
2019-05-12T10:29:40.690Z,103488.00
2019-05-12T10:30:39.686Z,103808.00
2019-05-12T10:31:39.677Z,103648.00
2019-05-12T10:32:39.664Z,102272.00
2019-05-12T10:33:39.665Z,100736.00
2019-05-12T10:34:40.456Z,101568.00
2019-05-12T10:35:39.628Z,100704.00
2019-05-12T10:36:46.902Z,99040.00
2019-05-12T10:37:40.606Z,99456.00
2019-05-12T10:38:39.621Z,99520.00
2019-05-12T10:39:39.591Z,98720.00
2019-05-12T10:40:39.584Z,100352.00
2019-05-12T10:41:39.561Z,99328.00
2019-05-12T10:42:44.863Z,98016.00
2019-05-12T10:43:40.538Z,97856.00
2019-05-12T10:44:40.853Z,99808.00
2019-05-12T10:45:39.525Z,100352.00
2019-05-12T10:46:42.311Z,102048.00
2019-05-12T10:47:39.507Z,106240.00
2019-05-12T10:48:39.492Z,105568.00
2019-05-12T10:49:39.481Z,101984.00
2019-05-12T10:50:39.483Z,100896.00
2019-05-12T10:51:39.478Z,77824.00
2019-05-12T10:52:39.486Z,97120.00
2019-05-12T10:53:39.436Z,96864.00
2019-05-12T10:54:39.426Z,94112.00
2019-05-12T10:55:39.418Z,94016.00
2019-05-12T10:56:39.412Z,94080.00
2019-05-12T10:57:39.400Z,91040.00
2019-05-12T10:58:39.396Z,96096.00
2019-05-12T10:59:45.233Z,93376.00
2019-05-12T11:00:40.368Z,99904.00
2019-05-12T11:01:47.144Z,103488.00
2019-05-12T11:02:40.347Z,103936.00
2019-05-12T11:03:42.954Z,100736.00
2019-05-12T11:04:41.250Z,92128.00
2019-05-12T11:05:39.315Z,87456.00
2019-05-12T11:06:39.709Z,95328.00
2019-05-12T11:07:39.293Z,95104.00
2019-05-12T11:08:41.251Z,91040.00
2019-05-12T11:09:40.294Z,89152.00
2019-05-12T11:10:39.261Z,87104.00
2019-05-12T11:11:42.293Z,85376.00
2019-05-12T11:12:40.238Z,80416.00
2019-05-12T11:13:40.262Z,78848.00
2019-05-12T11:14:40.259Z,74368.00
2019-05-12T11:15:39.682Z,86048.00
2019-05-12T11:16:42.522Z,93472.00
2019-05-12T11:17:40.169Z,87360.00
2019-05-12T11:18:39.172Z,95456.00
2019-05-12T11:19:40.776Z,100096.00
2019-05-12T11:20:40.166Z,105568.00
2019-05-12T11:21:39.141Z,108736.00
2019-05-12T11:22:39.124Z,96768.00
2019-05-12T11:23:39.113Z,90688.00
2019-05-12T11:24:39.102Z,100352.00
2019-05-12T11:25:39.109Z,102016.00
2019-05-12T11:26:39.088Z,100608.00
2019-05-12T11:27:39.093Z,99328.00
2019-05-12T11:28:39.060Z,105248.00
2019-05-12T11:29:46.307Z,105344.00
2019-05-12T11:30:40.052Z,103104.00
2019-05-12T11:31:39.033Z,100672.00
2019-05-12T11:32:39.025Z,103008.00
2019-05-12T11:33:39.009Z,107488.00
2019-05-12T11:34:38.996Z,108960.00
2019-05-12T11:35:38.998Z,109632.00
2019-05-12T11:36:38.981Z,104128.00
2019-05-12T11:37:38.990Z,98880.00
2019-05-12T11:38:38.954Z,101184.00
2019-05-12T11:39:44.659Z,96992.00
2019-05-12T11:40:39.956Z,102016.00
2019-05-12T11:41:38.929Z,104544.00
2019-05-12T11:42:38.915Z,103296.00
2019-05-12T11:43:38.907Z,107584.00
2019-05-12T11:44:38.914Z,104480.00
2019-05-12T11:45:38.881Z,102272.00
2019-05-12T11:46:38.886Z,100192.00
2019-05-12T11:47:38.863Z,97856.00
2019-05-12T11:48:40.351Z,103904.00
2019-05-12T11:49:39.847Z,106496.00
2019-05-12T11:50:40.373Z,106432.00
2019-05-12T11:51:39.827Z,109248.00
2019-05-12T11:52:38.818Z,108832.00
2019-05-12T11:53:38.804Z,111008.00
2019-05-12T11:54:41.261Z,109984.00
2019-05-12T11:55:39.779Z,111968.00
2019-05-12T11:56:40.289Z,108224.00
2019-05-12T11:57:39.760Z,108128.00
2019-05-12T11:58:41.245Z,109600.00
2019-05-12T11:59:39.738Z,109152.00
2019-05-12T12:00:38.744Z,108608.00
2019-05-12T12:01:39.661Z,110240.00
2019-05-12T12:02:39.707Z,108000.00
2019-05-12T12:03:38.700Z,104576.00
2019-05-12T12:04:38.695Z,102336.00
2019-05-12T12:05:38.672Z,101152.00
2019-05-12T12:06:38.685Z,100064.00
2019-05-12T12:07:45.705Z,100384.00
2019-05-12T12:08:39.672Z,103008.00
2019-05-12T12:09:38.642Z,103712.00
2019-05-12T12:10:39.988Z,102240.00
2019-05-12T12:11:38.651Z,99840.00